Flight Track Log - Related Links

Times and Time Zones

All times are in EST time to prevent confusion due to time zone crossing. See the ASQ6117 flight status page for this flight to view local times or setup timezone preferences in your user account.

Time Position Orientation Groundspeed Altitude Reporting Facility
EST Latitude Longitude Course Direction KTS MPH feet Rate Location/Type
Thu 06:10:07 AM 30.5069 -81.6653 10° North 166 191 700  Level Jacksonville Center
Thu 06:10:25 AM 30.5153 -81.6483 60° Northeast 173 199 1,300 1,823 Climbing Jacksonville Center
Thu 06:11:26 AM 30.5375 -81.5853 68° East 247 284 3,100 2,182 Climbing Jacksonville Center
Thu 06:12:26 AM 30.6019 -81.5483 26° Northeast 281 323 5,700 2,447 Climbing Jacksonville Center
Thu 06:12:42 AM 30.6269 -81.5456 North 283 326 6,200 2,526 Climbing Jacksonville Center
Thu 06:13:00 AM 30.8965 -81.5101 23° Northeast  Level FlightAware Approximate
Thu 06:13:42 AM 30.7019 -81.5275 12° North 293 337 8,900  Level Jacksonville Center
Thu 06:14:00 AM 30.9992 -81.4637 19° North  Level FlightAware Approximate
Thu 06:14:42 AM 30.7831 -81.5094 11° North 293 337 11,200  Level Jacksonville Center
Thu 06:15:00 AM 31.1014 -81.4231 10° North  Level FlightAware Approximate
Thu 06:15:42 AM 30.8747 -81.4886 11° North 298 343 12,300  Level Jacksonville Center
Thu 06:16:42 AM 30.9789 -81.4653 11° North 341 392 13,600 1,450 Climbing Jacksonville Center
Thu 06:17:42 AM 31.0831 -81.4589 North 365 420 15,200 1,550 Climbing Jacksonville Center
Thu 06:18:42 AM 31.1878 -81.4719 354° North 383 441 16,700 1,400 Climbing Jacksonville Center
Thu 06:19:42 AM 31.2861 -81.4850 354° North 390 449 18,000 1,450 Climbing Jacksonville Center
Thu 06:20:42 AM 31.3989 -81.4956 355° North 385 443 19,600 1,450 Climbing Jacksonville Center
Thu 06:21:42 AM 31.4972 -81.5061 355° North 385 443 20,900 1,400 Climbing Jacksonville Center
Thu 06:22:42 AM 31.6122 -81.5217 353° North 390 449 22,400 1,400 Climbing Jacksonville Center
Thu 06:23:42 AM 31.7103 -81.5347 354° North 390 449 23,700 1,450 Climbing Jacksonville Center
Thu 06:24:42 AM 31.8275 -81.5478 355° North 388 447 25,300 1,500 Climbing Jacksonville Center
Thu 06:25:42 AM 31.9319 -81.5608 354° North 388 447 26,700 1,400 Climbing Jacksonville Center
Thu 06:26:42 AM 32.0239 -81.5717 354° North 383 441 28,100 1,500 Climbing Jacksonville Center
Thu 06:27:42 AM 32.1369 -81.5872 353° North 365 420 29,700 1,500 Climbing Jacksonville Center
Thu 06:28:42 AM 32.2331 -81.5983 354° North 360 414 31,100 1,400 Climbing Jacksonville Center
Thu 06:29:42 AM 32.3228 -81.6092 354° North 354 407 32,500 1,500 Climbing Jacksonville Center
Thu 06:30:42 AM 32.4294 -81.6225 354° North 348 400 34,100 1,250 Climbing Jacksonville Center
Thu 06:31:42 AM 32.5236 -81.6336 354° North 348 400 35,000 450 Climbing Jacksonville Center
Thu 06:32:42 AM 32.6114 -81.6447 354° North 348 400 35,000  Level Jacksonville Center
Thu 06:33:42 AM 32.7136 -81.6556 355° North 364 419 35,000  Level Jacksonville Center
Thu 06:34:42 AM 32.8267 -81.6689 354° North 380 437 35,000  Level Jacksonville Center
Thu 06:35:42 AM 32.9500 -81.6844 354° North 397 457 35,000  Level Jacksonville Center
Thu 06:36:42 AM 33.0606 -81.6981 354° North 414 476 35,000  Level Jacksonville Center
Thu 06:37:42 AM 33.1756 -81.7111 355° North 421 484 35,000  Level Jacksonville Center
Thu 06:38:42 AM 33.2947 -81.7222 356° North 421 484 35,000  Level Jacksonville Center
Thu 06:41:03 AM 33.5644 -81.7578 354° North 412 474 35,000  Level Atlanta Center
Thu 06:42:03 AM 33.6836 -81.7719 354° North 412 474 35,000  Level Atlanta Center
Thu 06:43:03 AM 33.7967 -81.7867 354° North 417 480 35,000  Level Atlanta Center
Thu 06:44:03 AM 33.9136 -81.8036 353° North 417 480 35,000  Level Atlanta Center
Thu 06:45:03 AM 34.0308 -81.8156 355° North 417 480 35,000  Level Atlanta Center
Thu 06:46:03 AM 34.1458 -81.8300 354° North 417 480 35,000  Level Atlanta Center
Thu 06:47:03 AM 34.2756 -81.8467 354° North 422 486 35,000 450 Level Atlanta Center
Thu 06:48:03 AM 34.3886 -81.8639 353° North 422 486 35,900 500 Climbing Atlanta Center
Thu 06:49:03 AM 34.5058 -81.8786 354° North 422 486 36,000 50 Climbing Atlanta Center
Thu 06:50:03 AM 34.6186 -81.8933 354° North 422 486 36,000  Level Atlanta Center
Thu 06:51:03 AM 34.7256 -81.9133 351° North 422 486 36,000  Level Atlanta Center
Thu 06:52:03 AM 34.8425 -81.9306 353° North 422 486 36,000  Level Atlanta Center
Thu 06:53:03 AM 34.9556 -81.9403 356° North 422 486 36,000  Level Atlanta Center
Thu 06:54:03 AM 35.0683 -81.9528 355° North 417 480 36,000  Level Atlanta Center
Thu 06:55:03 AM 35.1833 -81.9678 354° North 412 474 36,000  Level Atlanta Center
Thu 06:56:03 AM 35.2983 -81.9825 354° North 407 468 36,000  Level Atlanta Center
Thu 06:57:03 AM 35.4092 -81.9950 355° North 412 474 36,000  Level Atlanta Center
Thu 06:58:03 AM 35.5242 -82.0128 353° North 407 468 36,000  Level Atlanta Center
Thu 06:59:03 AM 35.6350 -82.0253 355° North 407 468 36,000  Level Atlanta Center
Thu 07:00:03 AM 35.7458 -82.0431 353° North 407 468 36,000  Level Atlanta Center
Thu 07:01:03 AM 35.8628 -82.0556 355° North 401 461 36,000  Level Atlanta Center
Thu 07:02:03 AM 35.9736 -82.0733 353° North 406 467 36,000  Level Atlanta Center
Thu 07:04:18 AM 36.2300 -82.1014 355° North 407 468 36,000  Level Indianapolis Center
Thu 07:05:19 AM 36.3422 -82.1169 354° North 407 468 36,000  Level Indianapolis Center
Thu 07:06:20 AM 36.4497 -82.1436 349° North 402 463 36,000  Level Indianapolis Center
Thu 07:07:21 AM 36.5328 -82.2189 324° Northwest 372 428 36,000  Level Indianapolis Center
Thu 07:08:22 AM 36.6144 -82.2967 323° Northwest 371 427 36,000  Level Indianapolis Center
Thu 07:09:22 AM 36.6956 -82.3744 322° Northwest 370 426 36,000  Level Indianapolis Center
Thu 07:10:23 AM 36.7764 -82.4522 322° Northwest 370 426 36,000  Level Indianapolis Center
Thu 07:11:24 AM 36.8719 -82.5442 322° Northwest 370 426 36,000  Level Indianapolis Center
Thu 07:12:25 AM 36.9536 -82.6233 322° Northwest 370 426 36,000  Level Indianapolis Center
Thu 07:13:26 AM 37.0353 -82.7028 322° Northwest 371 427 36,000  Level Indianapolis Center
Thu 07:14:27 AM 37.1181 -82.7819 323° Northwest 374 430 36,000  Level Indianapolis Center
Thu 07:15:27 AM 37.2003 -82.8625 322° Northwest 375 432 36,000  Level Indianapolis Center
Thu 07:16:28 AM 37.2825 -82.9433 322° Northwest 375 432 36,000  Level Indianapolis Center
Thu 07:17:29 AM 37.3664 -83.0247 322° Northwest 376 433 36,000  Level Indianapolis Center
Thu 07:18:30 AM 37.4486 -83.1067 322° Northwest 376 433 36,000  Level Indianapolis Center
Thu 07:19:31 AM 37.5325 -83.1886 322° Northwest 376 433 36,000  Level Indianapolis Center
Thu 07:20:32 AM 37.6286 -83.2828 322° Northwest 377 434 36,000  Level Indianapolis Center
Thu 07:21:33 AM 37.7111 -83.3664 321° Northwest 377 434 36,000  Level Indianapolis Center
Thu 07:22:34 AM 37.7953 -83.4475 323° Northwest 377 434 36,000  Level Indianapolis Center
Thu 07:23:35 AM 37.8775 -83.5306 321° Northwest 377 434 36,000  Level Indianapolis Center
Thu 07:24:37 AM 37.9600 -83.6100 323° Northwest 377 434 36,000  Level Indianapolis Center
Thu 07:25:38 AM 38.0422 -83.6928 322° Northwest 377 434 36,000  Level Indianapolis Center
Thu 07:26:39 AM 38.1239 -83.7778 321° Northwest 377 434 36,000  Level Indianapolis Center
Thu 07:27:40 AM 38.2069 -83.8583 323° Northwest 377 434 36,000  Level Indianapolis Center
Thu 07:28:41 AM 38.2956 -83.9336 326° Northwest 380 437 36,000  Level Indianapolis Center
Thu 07:29:42 AM 38.3878 -84.0028 330° Northwest 382 440 36,000  Level Indianapolis Center
Thu 07:30:43 AM 38.4789 -84.0731 329° Northwest 383 441 36,000  Level Indianapolis Center
Thu 07:31:45 AM 38.5864 -84.1550 329° Northwest 383 441 36,000  Level Indianapolis Center
Thu 07:32:46 AM 38.6714 -84.2236 328° Northwest 382 440 36,000  Level Indianapolis Center
Thu 07:33:47 AM 38.7206 -84.3311 300° West 367 422 36,000  Level Indianapolis Center
Thu 07:34:48 AM 38.7514 -84.4450 289° West 346 398 36,000  Level Indianapolis Center
Thu 07:35:49 AM 38.7819 -84.5608 289° West 345 397 36,000  Level Indianapolis Center
Thu 07:36:51 AM 38.8114 -84.6781 288° West 345 397 36,000  Level Indianapolis Center
Thu 07:37:52 AM 38.8428 -84.7922 289° West 345 397 36,000  Level Indianapolis Center
Thu 07:38:53 AM 38.8833 -84.9300 291° West 345 397 36,000  Level Indianapolis Center
Thu 07:39:54 AM 38.9161 -85.0453 290° West 345 397 36,000  Level Indianapolis Center
Thu 07:40:56 AM 38.9481 -85.1603 290° West 345 397 36,000  Level Indianapolis Center
Thu 07:41:57 AM 38.9786 -85.2672 290° West 326 375 36,000  Level Indianapolis Center
Thu 07:42:58 AM 39.0089 -85.3706 291° West 316 364 36,000  Level Indianapolis Center
Thu 07:43:59 AM 39.0394 -85.4700 292° West 306 352 36,000  Level Indianapolis Center
Thu 07:45:01 AM 39.0706 -85.5669 292° West 298 343 36,000  Level Indianapolis Center
Thu 07:46:02 AM 39.1003 -85.6625 292° West 293 337 36,000  Level Indianapolis Center
Thu 07:47:03 AM 39.1292 -85.7567 292° West 290 334 36,000  Level Indianapolis Center
Thu 07:48:05 AM 39.1661 -85.8692 293° West 287 330 36,000  Level Indianapolis Center
Thu 07:49:06 AM 39.1961 -85.9603 293° West 282 325 36,000  Level Indianapolis Center
Thu 07:50:08 AM 39.2267 -86.0531 293° West 282 325 36,000  Level Indianapolis Center
Thu 07:51:09 AM 39.2567 -86.1447 293° West 281 323 36,000  Level Indianapolis Center
Thu 07:52:10 AM 39.2886 -86.2386 294° West 282 325 36,000  Level Indianapolis Center
Thu 07:53:12 AM 39.3214 -86.3394 293° West 297 342 36,000  Level Indianapolis Center
Thu 07:54:13 AM 39.3558 -86.4417 294° West 306 352 36,000  Level Indianapolis Center
Thu 07:55:15 AM 39.3939 -86.5553 293° West 311 358 36,000  Level Indianapolis Center
Thu 07:56:16 AM 39.3864 -86.6578 265° West 317 365 36,000 -244 Level Indianapolis Center
Thu 07:57:18 AM 39.3881 -86.7717 271° West 317 365 35,500 -976 Descending Indianapolis Center
Thu 07:58:19 AM 39.3881 -86.9083 270° West 317 365 34,000 -1,317 Descending Indianapolis Center
Thu 07:59:21 AM 39.3892 -87.0181 271° West 312 359 32,800 -1,122 Descending Indianapolis Center
Thu 08:00:22 AM 39.3889 -87.1306 270° West 312 359 31,700 -1,122 Descending Indianapolis Center
Thu 08:01:24 AM 39.3903 -87.2564 271° West 342 394 30,500 -829 Descending Indianapolis Center
Thu 08:02:25 AM 39.3908 -87.3881 270° West 363 418 30,000 -244 Descending Indianapolis Center
Thu 08:03:27 AM 39.3908 -87.5217 270° West 368 423 30,000  Level Indianapolis Center
Thu 08:04:28 AM 39.3917 -87.6556 271° West 370 426 30,000  Level Indianapolis Center
Thu 08:05:30 AM 39.3908 -87.7889 270° West 372 428 30,000  Level Indianapolis Center
Thu 08:06:31 AM 39.3911 -87.9492 270° West 372 428 30,000  Level Indianapolis Center
Thu 08:07:33 AM 39.3875 -88.0814 268° West 372 428 30,000  Level Indianapolis Center
Thu 08:08:03 AM 39.3669 -88.1325 243° Southwest 368 423 30,000  Level Kansas City Center
Thu 08:09:02 AM 39.3342 -88.2556 251° West 364 419 30,000 -99 Level Kansas City Center
Thu 08:10:04 AM 39.3017 -88.3803 251° West 365 420 29,800 -732 Descending Kansas City Center
Thu 08:11:05 AM 39.2694 -88.4972 250° West 353 406 28,500 -1,377 Descending Kansas City Center
Thu 08:12:06 AM 39.2411 -88.6119 252° West 316 364 27,000 -1,240 Descending Kansas City Center
Thu 08:13:06 AM 39.2119 -88.7186 251° West 315 362 26,000 -1,000 Descending Kansas City Center
Thu 08:14:06 AM 39.1822 -88.8242 250° West 315 362 25,000 -968 Descending Kansas City Center
Thu 08:15:10 AM 39.1558 -88.9286 252° West 312 359 24,000 -919 Descending Kansas City Center
Thu 08:16:10 AM 39.1292 -89.0328 252° West 308 354 23,100 -1,082 Descending Kansas City Center
Thu 08:17:12 AM 39.1014 -89.1361 251° West 308 354 21,800 -1,366 Descending Kansas City Center
Thu 08:18:13 AM 39.0778 -89.2367 253° West 296 341 20,300 -1,561 Descending Kansas City Center
Thu 08:19:15 AM 39.0831 -89.3392 274° West 290 334 18,600 -1,967 Descending Kansas City Center
Thu 08:20:15 AM 39.0947 -89.4550 277° West 275 316 16,300 -1,736 Descending Kansas City Center
Thu 08:21:16 AM 39.0919 -89.5464 268° West 263 303 15,100 -634 Descending Kansas City Center
Thu 08:22:18 AM 39.0711 -89.6356 253° West 262 302 15,000 -443 Descending Kansas City Center
Thu 08:23:18 AM 39.0508 -89.7214 253° West 255 293 14,200 -1,388 Descending Kansas City Center
Thu 08:24:19 AM 39.0311 -89.8031 253° West 241 277 12,200 -2,016 Descending Kansas City Center
Thu 08:25:20 AM 39.0114 -89.8786 251° West 231 266 10,100 -1,805 Descending Kansas City Center
Thu 08:26:22 AM 38.9925 -89.9561 253° West 229 264 8,500 -1,033 Descending Kansas City Center
Thu 08:27:22 AM 38.9722 -90.0369 252° West 231 266 8,000 -744 Descending Kansas City Center
Thu 08:28:23 AM 38.9525 -90.1172 252° West 234 269 7,000 -1,065 Descending Kansas City Center
Thu 08:29:26 AM 38.9283 -90.2136 252° West 235 270 5,800 -1,073 Descending Kansas City Center
Thu 08:30:26 AM 38.9089 -90.2883 252° West 232 267 4,800 -992 Descending Kansas City Center
Thu 08:31:27 AM 38.8908 -90.3594 252° West 221 254 3,800 -976 Descending Kansas City Center
Thu 08:32:29 AM 38.8689 -90.4356 250° West 225 259 2,800 -639 Descending Kansas City Center
Thu 08:33:29 AM 38.8272 -90.4831 222° Southwest 207 238 2,500 -339 Descending Kansas City Center
Thu 08:34:33 AM 38.7903 -90.4519 147° Southeast 188 216 2,100 -528 Descending Kansas City Center
Thu 08:35:34 AM 38.7703 -90.4128 123° Southeast 155 178 1,400 -738 Descending Kansas City Center
Thu 08:36:35 AM 38.7514 -90.3756 123° Southeast 135 155 600 -787 Descending Kansas City Center

Login

Don't have an account? Register now (free) for customized features, flight alerts, and more!